createdAt,value
2019-05-05T00:01:55.695Z,9.20
2019-05-05T00:06:58.317Z,9.30
2019-05-05T00:12:14.600Z,9.20
2019-05-05T00:17:17.715Z,9.20
2019-05-05T00:22:20.275Z,9.30
2019-05-05T00:27:22.878Z,9.20
2019-05-05T00:32:27.694Z,9.20
2019-05-05T00:37:30.233Z,9.10
2019-05-05T00:42:35.083Z,9.10
2019-05-05T00:47:45.027Z,9.20
2019-05-05T00:52:46.715Z,9.20
2019-05-05T00:57:49.265Z,9.20
2019-05-05T01:02:54.201Z,9.00
2019-05-05T01:07:55.544Z,9.00
2019-05-05T01:12:58.141Z,9.00
2019-05-05T01:18:02.274Z,9.00
2019-05-05T01:23:04.446Z,9.00
2019-05-05T01:28:06.485Z,8.90
2019-05-05T01:33:14.528Z,8.80
2019-05-05T01:38:21.895Z,9.00
2019-05-05T01:43:25.285Z,8.90
2019-05-05T01:48:27.059Z,8.90
2019-05-05T01:53:29.679Z,8.90
2019-05-05T01:58:32.350Z,9.00
2019-05-05T02:03:35.145Z,9.00
2019-05-05T02:08:37.614Z,8.80
2019-05-05T02:13:40.227Z,8.80
2019-05-05T02:18:44.936Z,8.70
2019-05-05T02:23:45.487Z,8.70
2019-05-05T02:28:54.349Z,8.80
2019-05-05T02:33:59.050Z,8.80
2019-05-05T02:39:01.641Z,8.70
2019-05-05T02:44:05.107Z,8.80
2019-05-05T02:49:07.087Z,8.90
2019-05-05T02:54:09.716Z,9.00
2019-05-05T02:59:15.129Z,8.90
2019-05-05T03:04:17.734Z,8.90
2019-05-05T03:09:20.367Z,8.90
2019-05-05T03:14:23.718Z,8.70
2019-05-05T03:19:25.693Z,8.80
2019-05-05T03:24:28.279Z,8.80
2019-05-05T03:29:30.882Z,8.80
2019-05-05T03:34:34.332Z,8.70
2019-05-05T03:39:36.269Z,8.80
2019-05-05T03:44:44.657Z,8.80
2019-05-05T03:49:47.259Z,8.80
2019-05-05T03:54:49.833Z,8.80
2019-05-05T03:59:54.601Z,8.80
2019-05-05T04:04:55.285Z,8.80
2019-05-05T04:09:57.805Z,8.90
2019-05-05T04:15:00.431Z,8.90
2019-05-05T04:20:07.869Z,9.00
2019-05-05T04:25:10.449Z,9.00
2019-05-05T04:30:14.298Z,9.00
2019-05-05T04:35:15.659Z,9.00
2019-05-05T04:40:18.210Z,8.60
2019-05-05T04:45:20.795Z,8.80
2019-05-05T04:50:28.821Z,8.80
2019-05-05T04:55:33.565Z,8.90
2019-05-05T05:00:34.255Z,8.60
2019-05-05T05:05:44.131Z,8.80
2019-05-05T05:10:44.983Z,8.70
2019-05-05T05:15:47.581Z,9.00
2019-05-05T05:20:50.113Z,9.20
2019-05-05T05:25:54.427Z,9.30
2019-05-05T05:30:55.533Z,9.40
2019-05-05T05:35:58.047Z,9.40
2019-05-05T05:41:05.358Z,9.40
2019-05-05T05:46:13.677Z,9.50
2019-05-05T05:51:19.425Z,9.50
2019-05-05T05:56:21.359Z,9.60
2019-05-05T06:01:24.048Z,9.30
2019-05-05T06:06:26.541Z,9.50
2019-05-05T06:11:29.141Z,9.70
2019-05-05T06:16:31.705Z,9.80
2019-05-05T06:21:34.535Z,9.90
2019-05-05T06:26:37.523Z,10.00
2019-05-05T06:31:44.612Z,10.00
2019-05-05T06:36:45.299Z,10.30
2019-05-05T06:42:51.161Z,10.40
2019-05-05T06:47:53.809Z,10.10
2019-05-05T06:52:56.629Z,10.30
2019-05-05T06:57:59.914Z,10.30
2019-05-05T07:03:07.139Z,10.30
2019-05-05T07:08:05.325Z,10.40
2019-05-05T07:13:07.937Z,10.50
2019-05-05T07:18:10.731Z,10.60
2019-05-05T07:23:14.504Z,10.80
2019-05-05T07:28:15.860Z,10.70
2019-05-05T07:33:18.481Z,11.30
2019-05-05T07:38:21.081Z,11.20
2019-05-05T07:43:24.033Z,11.30
2019-05-05T07:48:26.306Z,11.40
2019-05-05T07:53:28.999Z,11.50
2019-05-05T07:58:31.710Z,11.70
2019-05-05T08:03:34.689Z,12.00
2019-05-05T08:08:37.482Z,12.10
2019-05-05T08:13:40.078Z,12.00
2019-05-05T08:18:49.292Z,12.20
2019-05-05T08:23:57.466Z,12.10
2019-05-05T08:29:06.614Z,12.20
2019-05-05T08:34:09.485Z,12.10
2019-05-05T08:39:13.739Z,12.20
2019-05-05T08:44:18.043Z,12.20
2019-05-05T08:49:17.938Z,12.10
2019-05-05T08:54:20.503Z,12.10
2019-05-05T08:59:24.252Z,12.20
2019-05-05T09:04:25.889Z,12.00
2019-05-05T09:09:28.661Z,12.10
2019-05-05T09:14:31.722Z,12.20
2019-05-05T09:19:34.692Z,12.00
2019-05-05T09:24:44.525Z,11.70
2019-05-05T09:29:45.573Z,11.70
2019-05-05T09:34:48.219Z,11.80
2019-05-05T09:39:50.951Z,11.50
2019-05-05T09:44:54.159Z,11.90
2019-05-05T09:49:56.375Z,12.40
2019-05-05T09:54:58.970Z,12.80
2019-05-05T10:00:07.921Z,12.70
2019-05-05T10:05:10.671Z,12.70
2019-05-05T10:10:13.888Z,12.50
2019-05-05T10:15:16.665Z,12.50
2019-05-05T10:20:19.307Z,12.50
2019-05-05T10:25:27.757Z,12.70
2019-05-05T10:30:30.461Z,12.30
2019-05-05T10:35:34.481Z,12.30
2019-05-05T10:40:35.725Z,12.50
2019-05-05T10:45:38.348Z,12.70
2019-05-05T10:50:41.011Z,12.60
2019-05-05T10:55:45.005Z,13.50
2019-05-05T11:00:48.442Z,13.70
2019-05-05T11:05:51.105Z,13.60
2019-05-05T11:10:53.795Z,13.60
2019-05-05T11:15:56.347Z,13.50
2019-05-05T11:20:58.955Z,13.10
2019-05-05T11:26:01.509Z,12.90
2019-05-05T11:31:04.539Z,13.10
2019-05-05T11:36:17.291Z,13.20
2019-05-05T11:41:19.865Z,13.30
2019-05-05T11:46:24.530Z,13.50
2019-05-05T11:51:25.162Z,13.90
2019-05-05T11:56:27.788Z,14.00
2019-05-05T12:01:30.462Z,14.00
2019-05-05T12:06:34.011Z,14.00
2019-05-05T12:11:35.743Z,13.90
2019-05-05T12:16:38.327Z,13.70
2019-05-05T12:21:41.087Z,13.50
2019-05-05T12:27:06.413Z,13.70
2019-05-05T12:32:12.090Z,13.90
2019-05-05T12:37:11.697Z,14.00
2019-05-05T12:42:14.515Z,14.00
2019-05-05T12:47:27.665Z,13.90
2019-05-05T12:52:30.255Z,14.20
2019-05-05T12:57:34.282Z,14.10
2019-05-05T13:02:35.524Z,14.10
2019-05-05T13:07:38.157Z,13.90
2019-05-05T13:12:40.902Z,13.70
2019-05-05T13:17:43.850Z,13.20
2019-05-05T13:22:50.861Z,13.10
2019-05-05T13:27:57.130Z,12.80
2019-05-05T13:32:56.539Z,12.70
2019-05-05T13:37:59.243Z,12.80
2019-05-05T13:43:04.124Z,12.90
2019-05-05T13:48:04.717Z,12.90
2019-05-05T13:53:07.371Z,12.90
2019-05-05T13:58:10.047Z,13.00
2019-05-05T14:03:12.726Z,13.30
2019-05-05T14:08:15.365Z,13.30
2019-05-05T14:13:18.001Z,13.30
2019-05-05T14:18:20.787Z,13.20
2019-05-05T14:23:24.043Z,13.40
2019-05-05T14:28:26.086Z,13.50
2019-05-05T14:33:34.023Z,13.60
2019-05-05T14:38:53.891Z,13.80
2019-05-05T14:43:56.582Z,14.00
2019-05-05T14:48:58.224Z,14.20
2019-05-05T14:54:00.799Z,14.30
2019-05-05T14:59:03.793Z,14.50
2019-05-05T15:04:06.087Z,14.50
2019-05-05T15:09:44.046Z,14.70
2019-05-05T15:14:45.393Z,14.80
2019-05-05T15:19:47.944Z,14.70
2019-05-05T15:24:50.651Z,14.90
2019-05-05T15:29:54.246Z,15.10
2019-05-05T15:40:05.311Z,14.60
2019-05-05T15:45:07.963Z,14.30
2019-05-05T15:50:10.829Z,14.00
2019-05-05T15:55:14.051Z,13.80
2019-05-05T16:00:16.603Z,13.60
2019-05-05T16:05:19.212Z,13.60
2019-05-05T16:10:23.278Z,13.40
2019-05-05T16:16:05.828Z,13.40
2019-05-05T16:21:18.978Z,13.40
2019-05-05T16:26:21.629Z,13.40
2019-05-05T16:31:24.521Z,13.40
2019-05-05T16:36:27.087Z,13.40
2019-05-05T16:41:29.826Z,13.40
2019-05-05T16:46:34.133Z,13.70
2019-05-05T16:51:37.626Z,13.60
2019-05-05T16:56:40.215Z,13.50
2019-05-05T17:01:44.540Z,13.50
2019-05-05T17:06:45.847Z,13.50
2019-05-05T17:11:53.985Z,13.40
2019-05-05T17:17:03.828Z,13.50
2019-05-05T17:22:06.198Z,13.60
2019-05-05T17:27:13.936Z,13.50
2019-05-05T17:32:16.589Z,13.50
2019-05-05T17:37:20.037Z,13.30
2019-05-05T17:42:37.803Z,13.10
2019-05-05T17:47:45.865Z,13.10
2019-05-05T17:52:53.913Z,13.20
2019-05-05T17:58:01.642Z,13.10
2019-05-05T18:02:59.541Z,13.10
2019-05-05T18:08:02.465Z,13.10
2019-05-05T18:13:11.507Z,13.00
2019-05-05T18:18:14.135Z,13.00
2019-05-05T18:23:16.789Z,13.00
2019-05-05T18:28:20.062Z,13.00
2019-05-05T18:33:22.043Z,12.90
2019-05-05T18:38:24.697Z,12.90
2019-05-05T18:43:34.069Z,12.80
2019-05-05T18:48:35.457Z,12.80
2019-05-05T18:53:38.235Z,12.70
2019-05-05T18:58:40.791Z,12.70
2019-05-05T19:04:51.078Z,12.70
2019-05-05T19:09:54.977Z,12.60
2019-05-05T19:14:56.499Z,12.60
2019-05-05T19:20:00.929Z,12.50
2019-05-05T19:25:09.103Z,12.50
2019-05-05T19:30:13.611Z,12.50
2019-05-05T19:35:14.466Z,12.50
2019-05-05T19:40:17.190Z,12.40
2019-05-05T19:45:19.910Z,12.40
2019-05-05T19:50:27.018Z,12.40
2019-05-05T19:55:29.885Z,12.30
2019-05-05T20:00:34.687Z,12.30
2019-05-05T20:05:35.203Z,12.20
2019-05-05T20:10:37.833Z,12.20
2019-05-05T20:15:47.366Z,12.00
2019-05-05T20:21:00.835Z,12.00
2019-05-05T20:25:53.790Z,12.10
2019-05-05T20:30:55.451Z,12.00
2019-05-05T20:36:09.156Z,12.00
2019-05-05T20:41:14.514Z,12.00
2019-05-05T20:46:17.003Z,12.00
2019-05-05T20:51:19.575Z,12.00
2019-05-05T20:56:22.215Z,11.90
2019-05-05T21:01:24.967Z,11.80
2019-05-05T21:06:27.603Z,11.70
2019-05-05T21:11:30.212Z,11.70
2019-05-05T21:16:34.247Z,11.70
2019-05-05T21:21:35.739Z,11.60
2019-05-05T21:26:44.017Z,11.50
2019-05-05T21:31:46.718Z,11.60
2019-05-05T21:36:49.322Z,11.40
2019-05-05T21:41:51.903Z,11.40
2019-05-05T21:46:54.479Z,11.30
2019-05-05T21:52:07.342Z,11.20
2019-05-05T21:57:14.095Z,11.10
2019-05-05T22:02:15.726Z,11.10
2019-05-05T22:07:18.309Z,11.10
2019-05-05T22:12:20.865Z,11.10
2019-05-05T22:17:23.422Z,11.00
2019-05-05T22:22:26.565Z,11.00
2019-05-05T22:27:29.139Z,11.00
2019-05-05T22:32:31.807Z,11.00
2019-05-05T22:37:34.482Z,10.90
2019-05-05T22:42:36.926Z,10.90
2019-05-05T22:47:39.476Z,10.40
2019-05-05T22:52:42.014Z,10.20
2019-05-05T22:57:45.195Z,10.20
2019-05-05T23:02:51.207Z,10.20
2019-05-05T23:07:54.570Z,10.20
2019-05-05T23:12:56.469Z,10.20
2019-05-05T23:18:04.687Z,10.30
2019-05-05T23:23:14.994Z,10.30
2019-05-05T23:28:17.543Z,10.20
2019-05-05T23:33:20.110Z,10.10
2019-05-05T23:38:23.944Z,9.80
2019-05-05T23:43:25.332Z,10.10
2019-05-05T23:48:28.556Z,10.10
2019-05-05T23:53:31.111Z,10.20
2019-05-05T23:58:34.791Z,10.20
